createdAt,value
2023-03-12T00:01:14.063Z,73.32
2023-03-12T00:03:43.737Z,74.35
2023-03-12T00:06:11.812Z,74.55
2023-03-12T00:08:40.199Z,74.50
2023-03-12T00:11:09.419Z,74.33
2023-03-12T00:13:37.799Z,73.93
2023-03-12T00:16:08.377Z,73.73
2023-03-12T00:18:36.286Z,74.78
2023-03-12T00:21:06.662Z,74.29
2023-03-12T00:23:34.751Z,73.81
2023-03-12T00:26:02.982Z,73.45
2023-03-12T00:28:30.889Z,72.60
2023-03-12T00:30:59.268Z,73.24
2023-03-12T00:33:27.838Z,72.88
2023-03-12T00:35:56.268Z,72.49
2023-03-12T00:38:25.373Z,72.67
2023-03-12T00:40:52.978Z,72.02
2023-03-12T00:43:20.699Z,72.90
2023-03-12T00:45:48.307Z,72.39
2023-03-12T00:48:16.041Z,71.84
2023-03-12T00:50:43.628Z,72.83
2023-03-12T00:53:11.375Z,72.35
2023-03-12T00:55:40.541Z,73.20
2023-03-12T00:58:08.371Z,72.46
2023-03-12T01:00:36.309Z,72.81
2023-03-12T01:03:04.302Z,73.00
2023-03-12T01:05:33.534Z,72.31
2023-03-12T01:08:02.948Z,72.57
2023-03-12T01:10:30.576Z,71.94
2023-03-12T01:12:59.730Z,72.05
2023-03-12T01:15:28.669Z,72.46
2023-03-12T01:17:56.275Z,71.96
2023-03-12T01:20:24.779Z,72.36
2023-03-12T01:22:53.141Z,72.39
2023-03-12T01:25:21.061Z,72.51
2023-03-12T01:27:48.705Z,71.68
2023-03-12T01:30:18.132Z,71.66
2023-03-12T01:32:45.801Z,71.26
2023-03-12T01:35:13.941Z,70.91
2023-03-12T01:37:41.633Z,72.01
2023-03-12T01:40:15.511Z,71.70
2023-03-12T01:42:43.183Z,71.72
2023-03-12T01:45:44.645Z,70.91
2023-03-12T01:48:13.741Z,71.41
2023-03-12T01:50:41.651Z,71.64
2023-03-12T01:53:09.435Z,72.25
2023-03-12T01:55:37.702Z,72.20
2023-03-12T01:58:07.660Z,72.94
2023-03-12T02:00:35.754Z,72.80
2023-03-12T02:03:07.531Z,73.30
2023-03-12T02:05:44.215Z,74.70
2023-03-12T02:08:12.747Z,74.21
2023-03-12T02:10:40.621Z,74.47
2023-03-12T02:13:08.759Z,73.70
2023-03-12T02:15:37.442Z,72.67
2023-03-12T02:18:06.125Z,71.96
2023-03-12T02:20:41.139Z,72.13
2023-03-12T02:23:14.745Z,72.04
2023-03-12T02:25:47.337Z,71.62
2023-03-12T02:28:19.663Z,71.77
2023-03-12T02:30:50.965Z,71.01
2023-03-12T02:33:18.890Z,71.38
2023-03-12T02:35:47.599Z,71.25
2023-03-12T02:38:40.513Z,70.76
2023-03-12T02:41:15.327Z,69.92
2023-03-12T02:43:46.210Z,70.10
2023-03-12T02:46:15.689Z,70.37
2023-03-12T02:48:43.411Z,70.77
2023-03-12T02:51:11.601Z,70.87
2023-03-12T02:53:39.205Z,71.28
2023-03-12T02:56:08.147Z,70.84
2023-03-12T02:58:37.683Z,71.24
2023-03-12T03:01:05.751Z,70.91
2023-03-12T03:03:33.414Z,72.25
2023-03-12T03:06:01.259Z,72.87
2023-03-12T03:08:28.956Z,74.99
2023-03-12T03:10:56.980Z,76.16
2023-03-12T03:13:25.037Z,77.17
2023-03-12T03:15:54.278Z,78.45
2023-03-12T03:18:21.886Z,80.02
2023-03-12T03:20:56.177Z,81.30
2023-03-12T03:23:24.051Z,81.67
2023-03-12T03:25:52.728Z,82.50
2023-03-12T03:28:21.328Z,82.47
2023-03-12T03:30:49.659Z,82.63
2023-03-12T03:33:18.630Z,82.35
2023-03-12T03:35:46.554Z,82.81
2023-03-12T03:38:14.296Z,84.37
2023-03-12T03:40:42.003Z,85.29
2023-03-12T03:43:09.687Z,86.39
2023-03-12T03:45:37.335Z,87.75
2023-03-12T03:48:05.915Z,89.26
2023-03-12T03:50:36.032Z,89.19
2023-03-12T03:53:03.805Z,88.82
2023-03-12T03:55:31.963Z,86.88
2023-03-12T03:57:59.796Z,85.26
2023-03-12T04:00:27.847Z,85.77
2023-03-12T04:02:55.834Z,85.27
2023-03-12T04:05:24.673Z,84.91
2023-03-12T04:07:55.211Z,84.51
2023-03-12T04:10:26.504Z,84.89
2023-03-12T04:12:54.327Z,85.95
2023-03-12T04:15:22.316Z,86.60
2023-03-12T04:17:51.046Z,86.67
2023-03-12T04:20:20.427Z,85.55
2023-03-12T04:22:48.230Z,86.06
2023-03-12T04:25:18.744Z,85.19
2023-03-12T04:27:46.597Z,84.54
2023-03-12T04:30:15.206Z,85.07
2023-03-12T04:32:46.174Z,84.77
2023-03-12T04:35:14.115Z,84.11
2023-03-12T04:37:42.012Z,84.73
2023-03-12T04:40:12.916Z,85.32
2023-03-12T04:42:42.213Z,84.88
2023-03-12T04:45:12.206Z,84.26
2023-03-12T04:47:43.956Z,84.27
2023-03-12T04:50:12.809Z,83.22
2023-03-12T04:52:41.202Z,83.23
2023-03-12T04:55:09.950Z,83.47
2023-03-12T04:57:38.015Z,83.27
2023-03-12T05:00:13.206Z,82.74
2023-03-12T05:02:42.395Z,82.79
2023-03-12T05:05:12.311Z,82.67
2023-03-12T05:07:40.796Z,82.25
2023-03-12T05:10:09.212Z,82.09
2023-03-12T05:12:37.092Z,82.29
2023-03-12T05:15:07.616Z,82.22
2023-03-12T05:17:35.918Z,82.54
2023-03-12T05:20:05.885Z,82.84
2023-03-12T05:22:34.418Z,83.05
2023-03-12T05:25:03.256Z,82.85
2023-03-12T05:27:32.025Z,82.63
2023-03-12T05:30:00.148Z,82.68
2023-03-12T05:32:29.363Z,82.66
2023-03-12T05:34:57.001Z,83.39
2023-03-12T05:37:25.018Z,82.78
2023-03-12T05:39:54.700Z,82.91
2023-03-12T05:42:22.616Z,82.71
2023-03-12T05:44:51.374Z,82.59
2023-03-12T05:47:21.128Z,82.46
2023-03-12T05:49:50.292Z,81.59
2023-03-12T05:52:18.137Z,82.30
2023-03-12T05:54:45.937Z,81.86
2023-03-12T05:57:13.896Z,81.88
2023-03-12T05:59:42.490Z,82.10
2023-03-12T06:02:10.427Z,82.12
2023-03-12T06:04:38.730Z,81.71
2023-03-12T06:07:07.787Z,81.99
2023-03-12T06:09:36.937Z,81.73
2023-03-12T06:12:05.180Z,81.79
2023-03-12T06:14:33.557Z,82.12
2023-03-12T06:17:01.887Z,81.54
2023-03-12T06:19:30.321Z,81.82
2023-03-12T06:21:58.324Z,81.90
2023-03-12T06:24:29.466Z,82.19
2023-03-12T06:27:06.380Z,81.67
2023-03-12T06:29:34.196Z,81.86
2023-03-12T06:32:01.797Z,81.56
2023-03-12T06:34:30.070Z,81.71
2023-03-12T06:36:57.720Z,81.52
2023-03-12T06:39:25.488Z,81.17
2023-03-12T06:41:54.459Z,81.10
2023-03-12T06:44:22.381Z,81.37
2023-03-12T06:46:50.053Z,80.99
2023-03-12T06:49:17.719Z,80.60
2023-03-12T06:51:45.356Z,80.18
2023-03-12T06:54:13.184Z,80.65
2023-03-12T06:56:40.799Z,80.65
2023-03-12T06:59:09.882Z,80.45
2023-03-12T07:01:37.506Z,80.75
2023-03-12T07:04:05.414Z,80.01
2023-03-12T07:06:33.125Z,80.21
2023-03-12T07:09:00.740Z,79.71
2023-03-12T07:11:28.347Z,80.04
2023-03-12T07:13:56.082Z,79.74
2023-03-12T07:16:25.188Z,80.06
2023-03-12T07:18:52.842Z,80.38
2023-03-12T07:21:22.764Z,80.71
2023-03-12T07:23:50.747Z,80.93
2023-03-12T07:26:18.415Z,81.01
2023-03-12T07:28:46.426Z,81.85
2023-03-12T07:31:14.120Z,82.18
2023-03-12T07:33:43.366Z,82.19
2023-03-12T07:36:11.109Z,82.36
2023-03-12T07:38:39.260Z,82.51
2023-03-12T07:41:06.901Z,82.39
2023-03-12T07:43:34.687Z,81.81
2023-03-12T07:46:02.651Z,82.13
2023-03-12T07:48:30.301Z,81.87
2023-03-12T07:50:59.263Z,82.19
2023-03-12T07:53:26.830Z,81.88
2023-03-12T07:55:56.026Z,82.31
2023-03-12T07:58:23.842Z,81.81
2023-03-12T08:00:53.522Z,81.67
2023-03-12T08:03:21.393Z,81.83
2023-03-12T08:05:57.300Z,81.75
2023-03-12T08:08:26.432Z,81.82
2023-03-12T08:10:54.924Z,81.64
2023-03-12T08:13:23.836Z,81.71
2023-03-12T08:15:51.762Z,82.42
2023-03-12T08:18:20.488Z,81.80
2023-03-12T08:20:51.696Z,81.33
2023-03-12T08:23:19.689Z,81.42
2023-03-12T08:25:49.964Z,81.51
2023-03-12T08:28:18.796Z,82.24
2023-03-12T08:30:48.302Z,81.57
2023-03-12T08:33:16.250Z,81.72
2023-03-12T08:35:43.914Z,81.67
2023-03-12T08:38:11.671Z,82.03
2023-03-12T08:40:39.449Z,82.35
2023-03-12T08:43:08.878Z,81.93
2023-03-12T08:45:37.108Z,82.17
2023-03-12T08:48:04.855Z,82.56
2023-03-12T08:50:33.201Z,82.65
2023-03-12T08:53:00.884Z,83.14
2023-03-12T08:55:29.092Z,83.45
2023-03-12T08:57:57.453Z,82.81
2023-03-12T09:00:26.775Z,82.58
2023-03-12T09:02:54.477Z,82.72
2023-03-12T09:05:22.136Z,82.65
2023-03-12T09:07:50.398Z,82.77
2023-03-12T09:10:18.175Z,82.99
2023-03-12T09:12:45.875Z,82.53
2023-03-12T09:15:13.951Z,82.73
2023-03-12T09:17:42.919Z,83.05
2023-03-12T09:20:13.980Z,83.56
2023-03-12T09:22:42.710Z,82.19
2023-03-12T09:25:12.184Z,81.80
2023-03-12T09:27:41.312Z,82.26
2023-03-12T09:30:13.570Z,82.80
2023-03-12T09:32:41.279Z,83.05
2023-03-12T09:35:11.084Z,83.29
2023-03-12T09:37:38.959Z,83.57
2023-03-12T09:40:08.573Z,83.47
2023-03-12T09:42:47.250Z,84.19
2023-03-12T09:45:20.700Z,84.25
2023-03-12T09:47:52.332Z,83.82
2023-03-12T09:50:27.480Z,84.58
2023-03-12T09:53:00.650Z,84.13
2023-03-12T09:55:29.833Z,83.89
2023-03-12T09:57:59.096Z,83.78
2023-03-12T10:00:31.990Z,83.68
2023-03-12T10:03:17.554Z,83.52
2023-03-12T10:05:57.310Z,83.35
2023-03-12T10:08:32.765Z,83.45
2023-03-12T10:11:04.965Z,82.73
2023-03-12T10:13:47.335Z,83.01
2023-03-12T10:16:31.337Z,82.63
2023-03-12T10:19:09.396Z,82.37
2023-03-12T10:21:45.523Z,82.95
2023-03-12T10:24:25.408Z,81.86
2023-03-12T10:26:56.154Z,82.29
2023-03-12T10:29:27.313Z,81.18
2023-03-12T10:32:00.269Z,81.42
2023-03-12T10:34:34.271Z,81.50
2023-03-12T10:37:14.055Z,81.57
2023-03-12T10:39:41.980Z,81.19
2023-03-12T10:42:18.993Z,81.66
2023-03-12T10:44:48.354Z,82.92
2023-03-12T10:47:31.360Z,84.07
2023-03-12T10:50:14.103Z,87.38
2023-03-12T10:52:43.717Z,88.59
2023-03-12T10:55:14.471Z,89.39
2023-03-12T10:57:43.146Z,89.17
2023-03-12T11:00:18.584Z,88.62
2023-03-12T11:02:47.299Z,89.29
2023-03-12T11:05:23.977Z,88.33
2023-03-12T11:07:53.789Z,88.35
2023-03-12T11:10:41.831Z,89.78
2023-03-12T11:13:24.114Z,87.15
2023-03-12T11:15:53.054Z,88.54
2023-03-12T11:18:25.452Z,86.07
2023-03-12T11:20:56.417Z,87.06
2023-03-12T11:23:28.977Z,86.98
2023-03-12T11:26:01.756Z,87.40
2023-03-12T11:28:37.719Z,88.14
2023-03-12T11:31:09.520Z,88.90
2023-03-12T11:33:37.527Z,87.68
2023-03-12T11:36:20.973Z,88.73
2023-03-12T11:38:57.411Z,87.69
2023-03-12T11:41:38.951Z,87.77
2023-03-12T11:44:22.483Z,87.16
2023-03-12T11:47:05.081Z,87.60
2023-03-12T11:49:49.717Z,87.45
2023-03-12T11:52:26.713Z,87.07
2023-03-12T11:55:20.355Z,86.96
2023-03-12T11:58:00.971Z,86.89
2023-03-12T12:00:34.980Z,85.84
2023-03-12T12:03:51.072Z,86.81
2023-03-12T12:06:25.318Z,86.41
2023-03-12T12:09:08.271Z,85.90
2023-03-12T12:11:51.016Z,85.87
2023-03-12T12:14:33.914Z,86.44
2023-03-12T12:17:14.718Z,85.67
2023-03-12T12:19:56.099Z,85.35
2023-03-12T12:22:39.590Z,86.02
2023-03-12T12:25:28.797Z,86.29
2023-03-12T12:28:16.539Z,86.26
2023-03-12T12:31:01.044Z,85.08
2023-03-12T12:33:44.505Z,84.60
2023-03-12T12:36:12.675Z,85.77
2023-03-12T12:38:43.646Z,84.05
2023-03-12T12:41:15.179Z,84.64
2023-03-12T12:43:48.982Z,84.15
2023-03-12T12:46:19.687Z,84.27
2023-03-12T12:48:51.605Z,83.07
2023-03-12T12:51:22.069Z,82.75
2023-03-12T12:53:56.450Z,83.45
2023-03-12T12:56:32.273Z,82.09
2023-03-12T12:59:25.060Z,81.79
2023-03-12T13:01:55.483Z,82.18
2023-03-12T13:04:26.893Z,83.16
2023-03-12T13:06:56.254Z,82.71
2023-03-12T13:09:36.263Z,81.93
2023-03-12T13:12:17.158Z,81.90
2023-03-12T13:14:47.837Z,82.63
2023-03-12T13:17:27.682Z,82.04
2023-03-12T13:20:12.243Z,82.56
2023-03-12T13:23:04.650Z,83.42
2023-03-12T13:25:47.251Z,82.15
2023-03-12T13:28:39.009Z,80.71
2023-03-12T13:31:39.498Z,81.02
2023-03-12T13:34:53.171Z,80.35
2023-03-12T13:38:00.530Z,80.00
2023-03-12T13:40:54.023Z,79.01
2023-03-12T13:43:52.469Z,76.96
2023-03-12T13:46:33.735Z,74.68
2023-03-12T13:49:06.336Z,75.42
2023-03-12T13:51:34.222Z,76.09
2023-03-12T13:54:04.689Z,77.32
2023-03-12T13:56:34.776Z,78.36
2023-03-12T13:59:05.301Z,79.50
2023-03-12T14:01:37.515Z,80.28
2023-03-12T14:04:11.775Z,79.99
2023-03-12T14:06:59.445Z,79.30
2023-03-12T14:09:35.559Z,79.53
2023-03-12T14:12:09.864Z,79.09
2023-03-12T14:15:08.111Z,78.68
2023-03-12T14:17:40.212Z,76.70
2023-03-12T14:20:15.425Z,76.73
2023-03-12T14:22:45.837Z,76.58
2023-03-12T14:25:17.253Z,75.99
2023-03-12T14:27:48.497Z,76.89
2023-03-12T14:30:23.380Z,75.94
2023-03-12T14:32:56.022Z,74.29
2023-03-12T14:35:28.227Z,74.55
2023-03-12T14:38:00.627Z,76.27
2023-03-12T14:40:39.313Z,76.50
2023-03-12T14:43:22.805Z,74.72
2023-03-12T14:45:52.918Z,75.17
2023-03-12T14:48:24.927Z,75.93
2023-03-12T14:50:52.617Z,77.40
2023-03-12T14:53:24.763Z,77.24
2023-03-12T14:56:07.819Z,76.88
2023-03-12T14:58:44.014Z,77.65
2023-03-12T15:01:15.315Z,77.92
2023-03-12T15:03:46.518Z,78.68
2023-03-12T15:06:18.922Z,80.01
2023-03-12T15:08:47.075Z,80.22
2023-03-12T15:11:14.870Z,81.08
2023-03-12T15:13:43.869Z,80.20
2023-03-12T15:16:11.598Z,80.37
2023-03-12T15:18:39.404Z,80.72
2023-03-12T15:21:07.583Z,80.29
2023-03-12T15:23:38.924Z,80.45
2023-03-12T15:26:12.483Z,80.15
2023-03-12T15:28:40.336Z,80.50
2023-03-12T15:31:13.816Z,80.57
2023-03-12T15:33:43.451Z,80.39
2023-03-12T15:36:25.205Z,77.65
2023-03-12T15:38:56.049Z,76.15
2023-03-12T15:41:27.924Z,77.91
2023-03-12T15:43:57.535Z,78.24
2023-03-12T15:46:28.350Z,77.91
2023-03-12T15:48:58.744Z,78.35
2023-03-12T15:51:33.110Z,78.08
2023-03-12T15:54:02.515Z,77.34
2023-03-12T15:56:32.397Z,76.21
2023-03-12T15:59:02.374Z,74.30
2023-03-12T16:01:31.542Z,74.06
2023-03-12T16:03:59.676Z,71.31
2023-03-12T16:06:29.954Z,71.01
2023-03-12T16:09:00.413Z,71.59
2023-03-12T16:11:30.905Z,71.54
2023-03-12T16:14:04.579Z,71.85
2023-03-12T16:16:33.894Z,73.31
2023-03-12T16:19:01.742Z,75.98
2023-03-12T16:21:29.484Z,76.56
2023-03-12T16:23:57.108Z,78.15
2023-03-12T16:26:24.879Z,78.66
2023-03-12T16:28:52.528Z,77.99
2023-03-12T16:31:20.529Z,78.70
2023-03-12T16:33:49.885Z,79.23
2023-03-12T16:36:19.290Z,78.37
2023-03-12T16:38:47.562Z,79.82
2023-03-12T16:41:19.158Z,79.34
2023-03-12T16:43:49.490Z,80.07
2023-03-12T16:46:19.948Z,80.27
2023-03-12T16:48:52.878Z,80.57
2023-03-12T16:51:20.906Z,81.00
2023-03-12T16:53:58.495Z,81.57
2023-03-12T16:56:33.313Z,81.96
2023-03-12T16:59:04.508Z,81.25
2023-03-12T17:01:32.384Z,80.11
2023-03-12T17:04:01.471Z,80.00
2023-03-12T17:06:29.084Z,79.78
2023-03-12T17:08:56.645Z,80.11
2023-03-12T17:11:26.901Z,80.43
2023-03-12T17:13:57.895Z,80.16
2023-03-12T17:16:26.290Z,80.11
2023-03-12T17:18:54.072Z,80.47
2023-03-12T17:21:23.840Z,79.85
2023-03-12T17:23:51.764Z,79.71
2023-03-12T17:26:20.170Z,80.22
2023-03-12T17:28:47.981Z,80.35
2023-03-12T17:31:15.939Z,80.38
2023-03-12T17:33:44.422Z,80.04
2023-03-12T17:36:12.129Z,79.93
2023-03-12T17:38:41.107Z,80.57
2023-03-12T17:41:25.077Z,80.46
2023-03-12T17:43:54.628Z,80.47
2023-03-12T17:46:22.475Z,81.20
2023-03-12T17:48:50.117Z,81.54
2023-03-12T17:51:18.114Z,81.96
2023-03-12T17:53:47.439Z,81.79
2023-03-12T17:56:17.983Z,81.54
2023-03-12T17:58:46.448Z,81.64
2023-03-12T18:01:14.347Z,82.64
2023-03-12T18:03:44.024Z,82.86
2023-03-12T18:06:11.856Z,82.49
2023-03-12T18:08:40.021Z,82.65
2023-03-12T18:11:09.085Z,82.61
2023-03-12T18:13:38.377Z,82.45
2023-03-12T18:16:07.554Z,82.20
2023-03-12T18:18:35.514Z,81.37
2023-03-12T18:21:03.129Z,81.25
2023-03-12T18:23:30.785Z,81.46
2023-03-12T18:25:58.404Z,81.41
2023-03-12T18:28:27.434Z,81.24
2023-03-12T18:30:55.284Z,81.56
2023-03-12T18:33:23.036Z,81.45
2023-03-12T18:35:52.536Z,81.21
2023-03-12T18:38:21.848Z,81.12
2023-03-12T18:40:49.918Z,81.95
2023-03-12T18:43:17.522Z,82.66
2023-03-12T18:45:46.443Z,82.62
2023-03-12T18:48:14.037Z,82.73
2023-03-12T18:50:41.643Z,84.23
2023-03-12T18:53:09.444Z,83.46
2023-03-12T18:55:37.137Z,83.19
2023-03-12T18:58:04.784Z,84.47
2023-03-12T19:00:32.466Z,84.97
2023-03-12T19:03:01.565Z,84.89
2023-03-12T19:05:29.233Z,84.03
2023-03-12T19:07:56.908Z,84.83
2023-03-12T19:10:24.533Z,85.35
2023-03-12T19:12:54.022Z,85.18
2023-03-12T19:15:23.943Z,84.81
2023-03-12T19:17:51.740Z,84.35
2023-03-12T19:20:21.183Z,84.50
2023-03-12T19:22:48.854Z,85.11
2023-03-12T19:25:16.739Z,85.97
2023-03-12T19:27:44.472Z,86.29
2023-03-12T19:30:13.683Z,86.79
2023-03-12T19:32:44.058Z,87.00
2023-03-12T19:35:14.297Z,86.87
2023-03-12T19:37:43.838Z,86.09
2023-03-12T19:40:13.231Z,85.98
2023-03-12T19:42:41.212Z,85.75
2023-03-12T19:45:09.847Z,85.71
2023-03-12T19:47:37.587Z,85.67
2023-03-12T19:50:06.064Z,85.39
2023-03-12T19:52:33.665Z,84.93
2023-03-12T19:55:05.181Z,84.99
2023-03-12T19:57:33.597Z,84.57
2023-03-12T20:00:01.627Z,84.83
2023-03-12T20:02:32.149Z,84.52
2023-03-12T20:04:59.872Z,84.36
2023-03-12T20:07:27.540Z,84.29
2023-03-12T20:09:55.131Z,84.54
2023-03-12T20:12:24.410Z,85.40
2023-03-12T20:14:52.133Z,84.85
2023-03-12T20:17:19.904Z,85.21
2023-03-12T20:19:47.690Z,85.25
2023-03-12T20:22:15.557Z,84.60
2023-03-12T20:24:43.306Z,84.94
2023-03-12T20:27:10.883Z,84.46
2023-03-12T20:29:40.081Z,85.20
2023-03-12T20:32:07.672Z,85.13
2023-03-12T20:34:35.453Z,84.50
2023-03-12T20:37:03.051Z,84.19
2023-03-12T20:39:30.722Z,84.18
2023-03-12T20:41:58.321Z,85.13
2023-03-12T20:44:26.042Z,84.76
2023-03-12T20:46:54.989Z,84.27
2023-03-12T20:49:22.656Z,84.53
2023-03-12T20:51:50.278Z,84.21
2023-03-12T20:54:18.124Z,83.69
2023-03-12T20:56:45.768Z,83.87
2023-03-12T20:59:13.651Z,83.40
2023-03-12T21:01:41.328Z,83.53
2023-03-12T21:04:10.412Z,82.82
2023-03-12T21:06:38.032Z,82.43
2023-03-12T21:09:06.073Z,82.48
2023-03-12T21:11:33.798Z,82.16
2023-03-12T21:14:01.526Z,81.91
2023-03-12T21:16:29.120Z,82.16
2023-03-12T21:18:57.536Z,82.32
2023-03-12T21:21:26.918Z,81.78
2023-03-12T21:23:54.591Z,82.04
2023-03-12T21:26:22.309Z,81.33
2023-03-12T21:28:49.913Z,81.26
2023-03-12T21:31:18.941Z,80.96
2023-03-12T21:33:46.747Z,81.15
2023-03-12T21:36:15.979Z,80.71
2023-03-12T21:38:44.960Z,80.34
2023-03-12T21:41:15.220Z,80.13
2023-03-12T21:43:43.859Z,79.85
2023-03-12T21:46:13.048Z,80.19
2023-03-12T21:48:41.645Z,79.77
2023-03-12T21:51:11.640Z,80.01
2023-03-12T21:53:39.865Z,79.76
2023-03-12T21:56:10.453Z,79.38
2023-03-12T21:58:38.380Z,79.71
2023-03-12T22:01:08.464Z,79.78
2023-03-12T22:03:37.053Z,79.29
2023-03-12T22:06:05.604Z,79.69
2023-03-12T22:08:33.769Z,79.41
2023-03-12T22:11:01.893Z,78.80
2023-03-12T22:13:30.982Z,78.76
2023-03-12T22:16:00.656Z,78.61
2023-03-12T22:18:29.592Z,78.83
2023-03-12T22:20:59.653Z,78.65
2023-03-12T22:23:27.259Z,78.66
2023-03-12T22:25:55.263Z,78.68
2023-03-12T22:28:25.625Z,78.37
2023-03-12T22:30:59.770Z,77.99
2023-03-12T22:33:27.908Z,77.95
2023-03-12T22:35:55.978Z,78.13
2023-03-12T22:38:24.328Z,77.61
2023-03-12T22:40:54.240Z,77.60
2023-03-12T22:43:23.162Z,77.99
2023-03-12T22:45:53.747Z,77.51
2023-03-12T22:48:22.765Z,77.43
2023-03-12T22:50:54.347Z,77.03
2023-03-12T22:53:22.545Z,76.91
2023-03-12T22:55:57.571Z,77.13
2023-03-12T22:58:25.606Z,77.56
2023-03-12T23:00:59.469Z,77.45
2023-03-12T23:03:28.762Z,76.91
2023-03-12T23:05:57.072Z,77.31
2023-03-12T23:08:25.120Z,76.93
2023-03-12T23:10:54.267Z,77.39
2023-03-12T23:13:22.328Z,77.12
2023-03-12T23:15:50.615Z,77.46
2023-03-12T23:18:19.280Z,77.22
2023-03-12T23:20:48.585Z,77.38
2023-03-12T23:23:16.714Z,76.75
2023-03-12T23:25:52.589Z,76.92
2023-03-12T23:28:20.190Z,76.59
2023-03-12T23:30:54.470Z,77.14
2023-03-12T23:33:22.233Z,77.10
2023-03-12T23:35:58.417Z,77.14
2023-03-12T23:38:27.160Z,76.91
2023-03-12T23:40:54.974Z,77.16
2023-03-12T23:43:22.685Z,77.37
2023-03-12T23:45:56.628Z,76.72
2023-03-12T23:48:24.440Z,76.82
2023-03-12T23:50:52.054Z,76.83
2023-03-12T23:53:21.598Z,76.05
2023-03-12T23:55:57.069Z,75.77
2023-03-12T23:58:24.942Z,75.53
